Time;durP1;ratioP1;P1;durP2;ratioP2;P2;SDS_P1;SDS_P2;PMS_P1;PMS_P2;Temp;Humidity;BMP_temperature;BMP_pressure;BME280_temperature;BME280_humidity;BME280_pressure;Samples;Min_cycle;Max_cycle;Signal;HPM_P1;HPM_P2
2023/02/24 00:02:28;;;;;;;44.53;21.25;;;7.00;1.00;;;;;;5031356;28;20209;-82
2023/02/24 00:04:55;;;;;;;55.60;20.40;;;7.00;1.00;;;;;;5030709;28;20272;-83
2023/02/24 00:07:23;;;;;;;45.30;17.90;;;7.00;1.00;;;;;;5022235;28;20237;-83
2023/02/24 00:09:50;;;;;;;60.03;20.33;;;6.90;1.00;;;;;;5022534;28;20200;-82
2023/02/24 00:12:17;;;;;;;42.83;19.40;;;6.90;1.00;;;;;;5023334;28;20264;-83
2023/02/24 00:14:45;;;;;;;55.92;19.48;;;6.90;1.00;;;;;;5023473;28;20648;-83
2023/02/24 00:17:13;;;;;;;40.90;18.10;;;6.90;1.00;;;;;;5022443;28;20232;-83
2023/02/24 00:19:40;;;;;;;45.20;17.65;;;6.90;1.00;;;;;;5022122;28;20191;-82
2023/02/24 00:22:08;;;;;;;45.23;19.63;;;6.90;1.00;;;;;;5021708;28;20210;-82
2023/02/24 00:24:36;;;;;;;44.88;20.38;;;6.90;1.00;;;;;;5021469;28;20480;-82
2023/02/24 00:27:09;;;;;;;45.53;18.58;;;6.70;35.50;;;;;;5021280;28;20212;-83
2023/02/24 00:29:36;;;;;;;47.00;18.55;;;6.90;24.50;;;;;;5021491;28;20290;-83
2023/02/24 00:32:05;;;;;;;43.15;18.88;;;6.90;1.00;;;;;;5021120;28;20211;-82
2023/02/24 00:34:34;;;;;;;44.10;16.83;;;6.90;1.00;;;;;;5021258;28;20199;-82
2023/02/24 00:37:01;;;;;;;39.58;17.35;;;6.80;1.00;;;;;;5020931;28;20448;-83
2023/02/24 00:39:32;;;;;;;37.67;15.88;;;6.90;1.00;;;;;;5023264;28;20210;-82
2023/02/24 00:42:04;;;;;;;36.20;16.90;;;6.90;1.00;;;;;;5028057;28;20190;-82
2023/02/24 00:44:32;;;;;;;44.38;15.93;;;6.90;1.00;;;;;;5029914;28;20510;-82
2023/02/24 00:47:00;;;;;;;36.63;15.70;;;6.90;1.00;;;;;;5023713;28;20337;-82
2023/02/24 00:49:28;;;;;;;29.13;14.60;;;6.90;1.00;;;;;;5021898;28;20209;-82
2023/02/24 00:51:55;;;;;;;34.10;15.82;;;6.90;1.00;;;;;;5022368;28;20554;-82
2023/02/24 00:54:26;;;;;;;40.72;16.08;;;6.90;1.00;;;;;;5022174;28;20289;-82
2023/02/24 00:56:53;;;;;;;31.50;13.88;;;6.70;1.00;;;;;;5022984;28;20217;-82
2023/02/24 00:59:22;;;;;;;30.98;13.88;;;6.80;1.00;;;;;;5021398;28;20208;-83
2023/02/24 01:01:50;;;;;;;29.83;14.05;;;6.70;1.00;;;;;;5029000;28;20210;-83
2023/02/24 01:04:18;;;;;;;24.77;12.50;;;6.00;1.00;;;;;;5030278;28;20226;-82
2023/02/24 01:06:48;;;;;;;19.83;10.63;;;6.30;1.00;;;;;;5028895;28;20225;-82
2023/02/24 01:09:16;;;;;;;22.25;10.93;;;6.30;1.00;;;;;;5025651;28;20212;-82
2023/02/24 01:12:37;;;;;;;26.83;11.30;;;6.30;1.00;;;;;;5022930;28;20583;-82
2023/02/24 01:15:07;;;;;;;26.48;11.35;;;6.30;1.00;;;;;;5020755;28;20248;-82
2023/02/24 01:17:36;;;;;;;31.20;10.60;;;6.00;99.90;;;;;;5021237;28;20234;-83
2023/02/24 01:20:13;;;;;;;18.95;8.45;;;6.10;99.90;;;;;;5020158;28;20209;-82
2023/02/24 01:22:40;;;;;;;20.88;9.00;;;6.00;99.90;;;;;;5020507;28;20215;-82
2023/02/24 01:25:10;;;;;;;17.02;7.70;;;6.20;99.90;;;;;;5027881;28;20285;-81
2023/02/24 01:27:37;;;;;;;17.98;8.40;;;6.00;99.90;;;;;;5030299;28;20642;-82
2023/02/24 01:30:07;;;;;;;12.90;6.60;;;6.00;99.90;;;;;;5030787;28;20201;-81
2023/02/24 01:32:35;;;;;;;20.77;7.28;;;5.40;99.90;;;;;;5029318;28;20190;-83
2023/02/24 01:35:02;;;;;;;13.68;7.10;;;5.60;81.30;;;;;;5025270;28;20205;-82
2023/02/24 01:37:29;;;;;;;12.70;6.35;;;5.60;46.50;;;;;;5028262;28;20237;-82
2023/02/24 01:39:56;;;;;;;17.02;6.68;;;5.50;50.80;;;;;;5028337;28;20211;-82
2023/02/24 01:42:23;;;;;;;14.68;5.93;;;5.50;46.70;;;;;;5025508;28;20264;-82
2023/02/24 01:45:20;;;;;;;15.23;6.88;;;5.70;99.90;;;;;;5023661;28;20225;-82
2023/02/24 01:47:48;;;;;;;23.23;8.80;;;5.50;51.80;;;;;;5025433;28;20231;-82
2023/02/24 01:50:20;;;;;;;16.80;6.95;;;5.30;83.00;;;;;;5024160;28;20212;-82
2023/02/24 01:52:49;;;;;;;12.35;6.32;;;5.40;99.90;;;;;;5026209;28;20194;-82
2023/02/24 01:55:21;;;;;;;9.38;7.15;;;5.50;99.90;;;;;;5025528;28;20332;-82
2023/02/24 01:57:50;;;;;;;14.57;5.15;;;5.50;64.60;;;;;;5022695;28;20256;-82
2023/02/24 02:00:35;;;;;;;16.25;5.75;;;5.50;1.00;;;;;;5019303;28;20209;-82
2023/02/24 02:03:09;;;;;;;15.43;5.60;;;5.30;1.00;;;;;;5019540;28;20186;-81
2023/02/24 02:05:38;;;;;;;13.93;5.70;;;5.20;1.00;;;;;;5018771;28;20250;-82
2023/02/24 02:08:07;;;;;;;14.15;5.07;;;5.10;1.00;;;;;;5019532;28;20229;-81
2023/02/24 02:10:37;;;;;;;7.43;4.65;;;4.80;1.00;;;;;;5018276;28;20208;-80
2023/02/24 02:13:05;;;;;;;16.88;3.85;;;4.90;1.00;;;;;;5017411;28;20205;-81
2023/02/24 02:15:41;;;;;;;12.48;5.05;;;4.80;1.00;;;;;;5018687;28;20197;-80
2023/02/24 02:18:15;;;;;;;19.98;4.65;;;4.80;1.00;;;;;;5018959;28;20755;-80
2023/02/24 02:21:14;;;;;;;16.00;4.25;;;4.70;1.00;;;;;;5017059;28;20220;-80
2023/02/24 02:23:54;;;;;;;12.68;4.32;;;4.80;1.00;;;;;;4975120;28;20202;-79
2023/02/24 02:26:46;;;;;;;11.73;4.07;;;4.80;1.00;;;;;;5025271;28;20213;-80
2023/02/24 02:29:43;;;;;;;11.75;3.42;;;4.80;1.00;;;;;;5031502;28;20228;-79
2023/02/24 02:32:50;;;;;;;17.88;4.43;;;4.60;99.90;;;;;;5025250;28;20209;-80
2023/02/24 02:35:20;;;;;;;18.42;6.43;;;5.00;1.00;;;;;;4996433;28;20205;-80
2023/02/24 02:37:55;;;;;;;13.32;6.45;;;4.80;1.00;;;;;;5018955;28;20226;-80
2023/02/24 02:40:28;;;;;;;10.63;4.97;;;4.90;99.90;;;;;;5016680;28;20667;-80
2023/02/24 02:42:58;;;;;;;5.10;2.40;;;4.80;99.90;;;;;;5017701;28;20189;-80
2023/02/24 02:45:31;;;;;;;8.30;2.97;;;4.80;99.90;;;;;;5018017;28;20300;-80
2023/02/24 02:48:05;;;;;;;12.63;2.90;;;4.90;99.90;;;;;;5018099;28;20271;-79
2023/02/24 02:50:39;;;;;;;9.40;3.95;;;4.90;99.90;;;;;;5019968;28;20209;-79
2023/02/24 02:53:11;;;;;;;4.80;3.50;;;5.00;99.90;;;;;;5031020;28;20227;-79
2023/02/24 02:55:45;;;;;;;12.63;3.33;;;4.80;99.90;;;;;;5032200;28;20185;-79
2023/02/24 02:58:15;;;;;;;5.30;2.83;;;4.70;22.20;;;;;;5030192;28;20230;-80
2023/02/24 03:00:56;;;;;;;11.32;2.95;;;4.50;84.30;;;;;;5017581;28;20295;-80
2023/02/24 03:03:25;;;;;;;9.85;3.17;;;4.40;94.20;;;;;;5017243;28;20197;-80
2023/02/24 03:05:57;;;;;;;8.93;3.15;;;4.40;1.00;;;;;;5017011;28;20279;-81
2023/02/24 03:08:28;;;;;;;10.38;4.15;;;4.40;1.00;;;;;;5017222;28;20242;-80
2023/02/24 03:10:59;;;;;;;11.95;3.03;;;4.20;99.90;;;;;;5017304;28;20280;-80
2023/02/24 03:13:29;;;;;;;8.13;3.25;;;4.40;1.00;;;;;;5018687;28;20193;-80
2023/02/24 03:15:59;;;;;;;9.70;3.35;;;4.20;1.00;;;;;;5025464;28;20559;-80
2023/02/24 03:18:30;;;;;;;8.82;3.40;;;4.40;99.90;;;;;;5022340;28;20255;-79
2023/02/24 03:21:06;;;;;;;5.25;3.00;;;4.20;99.90;;;;;;5020938;28;20258;-79
2023/02/24 03:23:35;;;;;;;6.97;3.00;;;4.20;1.00;;;;;;5020506;28;20773;-79
2023/02/24 03:26:15;;;;;;;12.82;2.50;;;4.30;1.00;;;;;;5018464;28;20224;-79
2023/02/24 03:28:52;;;;;;;13.98;5.80;;;4.40;1.00;;;;;;5017522;28;20244;-80
2023/02/24 03:31:27;;;;;;;16.35;3.90;;;4.60;1.00;;;;;;5017614;28;20272;-80
2023/02/24 03:34:02;;;;;;;9.10;3.28;;;4.30;1.00;;;;;;5023625;28;20197;-80
2023/02/24 03:36:30;;;;;;;7.93;4.22;;;4.40;1.00;;;;;;5026812;28;20208;-80
2023/02/24 03:39:00;;;;;;;10.85;2.53;;;4.40;1.00;;;;;;5025793;28;20227;-80
2023/02/24 03:41:31;;;;;;;14.52;3.15;;;4.30;99.90;;;;;;5027008;28;20231;-80
2023/02/24 03:43:59;;;;;;;10.88;3.15;;;4.40;1.00;;;;;;5025647;28;20276;-80
2023/02/24 03:46:26;;;;;;;10.80;3.33;;;4.30;1.00;;;;;;5016346;28;20591;-79
2023/02/24 03:48:58;;;;;;;11.48;3.45;;;4.30;99.90;;;;;;5017533;28;20337;-78
2023/02/24 03:51:26;;;;;;;7.35;3.00;;;4.60;1.00;;;;;;5017931;28;20212;-79
2023/02/24 03:54:04;;;;;;;7.25;2.78;;;4.30;99.90;;;;;;5020713;28;20216;-80
2023/02/24 03:56:44;;;;;;;5.18;3.40;;;4.30;99.90;;;;;;5035185;28;20188;-79
2023/02/24 03:59:22;;;;;;;8.63;3.70;;;4.20;99.90;;;;;;5037510;28;20255;-78
2023/02/24 04:01:56;;;;;;;5.05;3.35;;;4.30;1.00;;;;;;5038293;28;20169;-79
2023/02/24 04:04:28;;;;;;;9.40;2.88;;;4.40;1.00;;;;;;5038223;28;20219;-79
2023/02/24 04:06:59;;;;;;;6.32;3.42;;;4.20;1.00;;;;;;5035347;28;20219;-79
2023/02/24 04:09:37;;;;;;;11.90;3.45;;;4.40;1.00;;;;;;5019427;28;20221;-80
2023/02/24 04:12:09;;;;;;;15.43;3.22;;;4.40;99.90;;;;;;5029446;28;20265;-79
2023/02/24 04:14:43;;;;;;;8.55;2.92;;;4.50;1.00;;;;;;5028980;28;20201;-79
2023/02/24 04:17:18;;;;;;;10.05;3.30;;;4.40;99.90;;;;;;5020840;28;20278;-79
2023/02/24 04:19:47;;;;;;;12.10;3.50;;;4.40;99.90;;;;;;5015654;28;20694;-79
2023/02/24 04:22:19;;;;;;;5.65;3.28;;;4.40;99.90;;;;;;5015324;28;20260;-79
2023/02/24 04:24:50;;;;;;;15.85;3.97;;;4.40;99.90;;;;;;5015193;28;20291;-79
2023/02/24 04:27:18;;;;;;;5.78;3.58;;;4.30;99.90;;;;;;5014575;28;20229;-79
2023/02/24 04:29:49;;;;;;;10.35;4.45;;;4.30;99.90;;;;;;5015023;28;20212;-80
2023/02/24 04:32:19;;;;;;;9.18;3.85;;;4.30;99.90;;;;;;5015211;28;20195;-80
2023/02/24 04:34:46;;;;;;;7.75;3.13;;;4.20;99.90;;;;;;5015560;28;20206;-79
2023/02/24 04:37:13;;;;;;;11.55;2.97;;;4.30;99.90;;;;;;5015837;28;20279;-81
2023/02/24 04:39:40;;;;;;;11.00;3.55;;;4.30;99.90;;;;;;5016923;28;20277;-79
2023/02/24 04:42:08;;;;;;;7.60;4.05;;;4.30;99.90;;;;;;5017278;28;20207;-79
2023/02/24 04:44:35;;;;;;;9.48;3.58;;;4.10;99.90;;;;;;5016430;28;20201;-80
2023/02/24 04:47:02;;;;;;;5.50;3.22;;;4.50;99.90;;;;;;5016533;28;20292;-80
2023/02/24 04:49:29;;;;;;;15.05;3.25;;;4.20;99.90;;;;;;5017779;28;20560;-79
2023/02/24 04:51:56;;;;;;;6.65;3.50;;;4.20;99.90;;;;;;5018303;28;20273;-80
2023/02/24 04:54:24;;;;;;;3.78;2.65;;;4.20;1.00;;;;;;5016914;28;20234;-80
2023/02/24 04:56:51;;;;;;;9.82;3.25;;;4.00;99.90;;;;;;5020944;28;20221;-80
2023/02/24 04:59:22;;;;;;;12.20;3.80;;;4.10;1.00;;;;;;5021103;28;20751;-79
2023/02/24 05:01:51;;;;;;;5.80;2.97;;;4.20;46.00;;;;;;5024519;28;20229;-79
2023/02/24 05:04:18;;;;;;;10.25;3.05;;;4.10;99.90;;;;;;5025971;28;20209;-80
2023/02/24 05:06:45;;;;;;;6.22;3.15;;;4.20;1.00;;;;;;5024411;28;20231;-80
2023/02/24 05:09:15;;;;;;;8.45;4.13;;;4.20;1.00;;;;;;5028632;28;20228;-80
2023/02/24 05:11:43;;;;;;;5.50;2.78;;;4.20;1.00;;;;;;5031853;28;20231;-79
2023/02/24 05:14:13;;;;;;;4.15;3.47;;;4.20;2.10;;;;;;5031989;28;20209;-79
2023/02/24 05:16:42;;;;;;;9.27;3.53;;;4.10;1.00;;;;;;5026418;28;20334;-81
2023/02/24 05:21:56;;;;;;;8.05;2.65;;;4.00;1.00;;;;;;5019474;28;20191;-81
2023/02/24 05:24:24;;;;;;;12.75;3.25;;;4.00;69.90;;;;;;5019512;28;20574;-81
2023/02/24 05:26:56;;;;;;;11.45;2.75;;;3.90;99.90;;;;;;5019527;28;20227;-80
2023/02/24 05:29:24;;;;;;;6.88;2.85;;;3.90;26.00;;;;;;5019656;28;20194;-79
2023/02/24 05:31:54;;;;;;;10.88;2.92;;;3.80;99.90;;;;;;5019339;28;20213;-80
2023/02/24 05:34:23;;;;;;;6.05;2.60;;;4.00;1.00;;;;;;5019615;28;20213;-80
2023/02/24 05:36:50;;;;;;;10.18;2.65;;;3.70;1.00;;;;;;5019764;28;20205;-80
2023/02/24 05:39:18;;;;;;;11.68;4.05;;;4.00;1.00;;;;;;5019021;28;20247;-79
2023/02/24 05:41:48;;;;;;;7.18;4.65;;;4.00;1.00;;;;;;5020678;28;20216;-79
2023/02/24 05:44:21;;;;;;;7.40;3.35;;;4.00;1.00;;;;;;5021877;28;20719;-79
2023/02/24 05:46:48;;;;;;;12.75;3.50;;;4.00;37.30;;;;;;5026545;28;20692;-80
2023/02/24 05:49:22;;;;;;;4.60;2.80;;;4.10;1.00;;;;;;5027851;28;20284;-80
2023/02/24 05:51:54;;;;;;;5.72;2.50;;;4.10;1.00;;;;;;5020279;28;20198;-80
2023/02/24 05:54:22;;;;;;;7.43;2.58;;;3.90;1.00;;;;;;5019406;28;20190;-80
2023/02/24 05:56:49;;;;;;;8.25;3.15;;;3.90;51.50;;;;;;5024947;28;20248;-80
2023/02/24 05:59:20;;;;;;;5.63;2.80;;;3.90;55.60;;;;;;5030593;28;20668;-80
2023/02/24 06:01:47;;;;;;;4.25;2.92;;;4.00;1.00;;;;;;5020421;28;20536;-81
2023/02/24 06:04:26;;;;;;;6.32;2.50;;;4.00;1.00;;;;;;5027388;28;20214;-80
2023/02/24 06:06:53;;;;;;;10.20;2.47;;;4.00;99.90;;;;;;5029463;28;20224;-80
2023/02/24 06:09:22;;;;;;;6.20;2.75;;;3.90;1.00;;;;;;5030396;28;20199;-79
2023/02/24 06:11:49;;;;;;;12.07;2.42;;;3.90;1.00;;;;;;5027644;28;20683;-79
2023/02/24 06:14:16;;;;;;;7.75;2.95;;;3.90;1.00;;;;;;5023857;28;20438;-79
2023/02/24 06:16:43;;;;;;;7.43;2.40;;;3.90;1.00;;;;;;5030209;28;20201;-79
2023/02/24 06:19:12;;;;;;;7.88;2.50;;;3.90;36.30;;;;;;5033150;28;20285;-79
2023/02/24 06:21:41;;;;;;;8.10;2.45;;;3.90;1.00;;;;;;5034725;28;20210;-79
2023/02/24 06:24:13;;;;;;;6.65;2.67;;;3.90;1.00;;;;;;5026200;28;20238;-79
2023/02/24 06:26:42;;;;;;;3.20;1.90;;;3.90;1.00;;;;;;5018946;28;20679;-80
2023/02/24 06:29:13;;;;;;;5.70;2.05;;;3.90;1.00;;;;;;5019996;28;20221;-80
2023/02/24 06:31:41;;;;;;;7.82;3.35;;;4.00;1.00;;;;;;5026344;28;20546;-79
2023/02/24 06:34:09;;;;;;;8.75;2.60;;;4.10;1.00;;;;;;5024119;28;20209;-79
2023/02/24 06:36:36;;;;;;;7.32;2.67;;;4.00;99.90;;;;;;5021947;28;20228;-80
2023/02/24 06:39:06;;;;;;;7.53;3.08;;;4.00;1.00;;;;;;5021233;28;20284;-80
2023/02/24 06:41:34;;;;;;;6.55;2.58;;;4.00;1.00;;;;;;5021419;28;20190;-79
2023/02/24 06:44:01;;;;;;;6.82;2.92;;;4.00;99.90;;;;;;5020357;28;20209;-79
2023/02/24 06:46:28;;;;;;;12.20;2.70;;;4.00;99.90;;;;;;5020245;28;20311;-80
2023/02/24 06:48:56;;;;;;;5.95;2.60;;;4.00;99.90;;;;;;5019206;28;20225;-79
2023/02/24 06:51:28;;;;;;;11.77;2.65;;;4.20;1.00;;;;;;5018850;28;20209;-79
2023/02/24 06:53:55;;;;;;;6.93;2.20;;;4.20;31.60;;;;;;5018342;28;20684;-79
2023/02/24 06:56:24;;;;;;;8.20;2.75;;;4.20;1.00;;;;;;5017618;28;20292;-79
2023/02/24 06:58:54;;;;;;;9.82;2.00;;;4.20;1.00;;;;;;5017857;28;20275;-79
2023/02/24 07:01:24;;;;;;;14.55;2.70;;;4.10;1.00;;;;;;5018426;28;20209;-80
2023/02/24 07:04:16;;;;;;;4.60;2.00;;;4.20;1.00;;;;;;5026025;28;20193;-81
2023/02/24 07:06:44;;;;;;;5.40;2.10;;;4.10;1.00;;;;;;5038039;28;20221;-80
2023/02/24 07:09:13;;;;;;;8.45;2.05;;;4.20;15.80;;;;;;5030176;28;20233;-80
2023/02/24 07:11:44;;;;;;;10.70;2.50;;;4.10;1.00;;;;;;5027820;28;20225;-81
2023/02/24 07:14:12;;;;;;;10.40;2.83;;;4.30;1.00;;;;;;5021200;28;20195;-82
2023/02/24 07:16:44;;;;;;;5.57;3.75;;;4.20;1.00;;;;;;5022596;28;20220;-81
2023/02/24 07:19:12;;;;;;;14.10;6.22;;;4.10;1.00;;;;;;5019127;28;20684;-81
2023/02/24 07:21:42;;;;;;;12.98;3.97;;;4.20;1.00;;;;;;5018538;28;20235;-81
2023/02/24 07:24:12;;;;;;;19.63;8.55;;;4.20;99.90;;;;;;5018501;28;20287;-82
2023/02/24 07:26:40;;;;;;;15.07;9.05;;;4.20;99.90;;;;;;5018223;28;20229;-80
2023/02/24 07:29:10;;;;;;;11.48;6.40;;;4.20;99.90;;;;;;5018006;28;20227;-81
2023/02/24 07:31:37;;;;;;;15.13;7.32;;;4.20;99.90;;;;;;5018333;28;20206;-81
2023/02/24 07:34:05;;;;;;;10.13;5.28;;;4.10;99.90;;;;;;5019422;28;20300;-82
2023/02/24 07:36:37;;;;;;;2.90;2.00;;;4.10;99.90;;;;;;5019022;28;20208;-81
2023/02/24 07:39:08;;;;;;;11.13;4.03;;;4.50;99.90;;;;;;5018965;28;20232;-81
2023/02/24 07:41:35;;;;;;;21.70;4.85;;;4.20;12.30;;;;;;5018455;28;20193;-81
2023/02/24 07:44:04;;;;;;;4.53;4.13;;;4.30;1.00;;;;;;5018287;28;20200;-81
2023/02/24 07:46:32;;;;;;;8.95;2.67;;;4.40;18.90;;;;;;5028145;28;20237;-81
2023/02/24 07:49:00;;;;;;;6.38;2.30;;;4.50;1.00;;;;;;5030555;28;20233;-81
2023/02/24 07:51:28;;;;;;;8.18;3.58;;;4.40;1.00;;;;;;5030854;28;20209;-80
2023/02/24 07:53:57;;;;;;;7.00;2.83;;;4.40;1.00;;;;;;5031534;28;20205;-80
2023/02/24 07:56:26;;;;;;;5.32;2.20;;;4.40;1.00;;;;;;5026862;28;20196;-83
2023/02/24 07:58:58;;;;;;;4.05;2.72;;;4.40;1.00;;;;;;5021259;28;20231;-80
2023/02/24 08:01:27;;;;;;;3.78;2.42;;;4.40;99.90;;;;;;5021235;28;20194;-80
2023/02/24 08:03:59;;;;;;;9.10;2.90;;;4.30;1.00;;;;;;5018301;28;20208;-80
2023/02/24 08:06:36;;;;;;;5.32;2.72;;;4.30;1.00;;;;;;5017778;28;20217;-80
2023/02/24 08:09:15;;;;;;;5.68;2.65;;;4.30;90.70;;;;;;5016581;28;20245;-80
2023/02/24 08:11:44;;;;;;;7.10;2.70;;;4.30;92.80;;;;;;5018183;28;20283;-80
2023/02/24 08:14:12;;;;;;;8.50;2.90;;;4.30;69.60;;;;;;5017865;28;20201;-79
2023/02/24 08:16:39;;;;;;;7.47;2.75;;;4.30;60.60;;;;;;5017690;28;20205;-80
2023/02/24 08:19:11;;;;;;;4.72;2.55;;;4.40;49.40;;;;;;5018816;28;20226;-82
2023/02/24 08:21:40;;;;;;;5.68;2.58;;;4.40;52.00;;;;;;5023450;28;20285;-81
2023/02/24 08:24:16;;;;;;;7.05;2.45;;;4.50;92.10;;;;;;5020766;28;20209;-82
2023/02/24 08:26:44;;;;;;;8.35;2.72;;;4.60;99.90;;;;;;5026698;28;20208;-83
2023/02/24 08:29:11;;;;;;;13.85;2.58;;;4.60;99.90;;;;;;5034907;28;20231;-82
2023/02/24 08:31:38;;;;;;;5.85;2.17;;;4.60;99.90;;;;;;5041220;28;20190;-82
2023/02/24 08:34:05;;;;;;;9.35;2.88;;;4.70;99.90;;;;;;5042093;28;20212;-83
2023/02/24 08:36:33;;;;;;;5.32;2.65;;;4.50;99.90;;;;;;5042134;28;20186;-82
2023/02/24 08:39:00;;;;;;;11.98;2.30;;;4.90;99.90;;;;;;5042067;28;20251;-82
2023/02/24 08:41:43;;;;;;;10.70;2.67;;;4.70;99.90;;;;;;5041219;28;20200;-82
2023/02/24 08:44:17;;;;;;;5.03;2.22;;;4.50;99.90;;;;;;5030166;28;20194;-83
2023/02/24 08:46:47;;;;;;;9.68;2.55;;;4.60;99.90;;;;;;5026209;28;20212;-82
2023/02/24 08:49:15;;;;;;;15.73;2.95;;;4.70;99.90;;;;;;5024402;28;20227;-84
2023/02/24 08:51:45;;;;;;;4.60;2.55;;;4.70;1.00;;;;;;5025029;28;20209;-83
2023/02/24 08:54:15;;;;;;;4.25;2.90;;;4.80;1.00;;;;;;5025592;28;20212;-83
2023/02/24 08:56:47;;;;;;;4.20;2.60;;;4.80;1.00;;;;;;5024428;28;20202;-83
2023/02/24 08:59:36;;;;;;;5.10;3.05;;;5.00;31.20;;;;;;5021564;28;20284;-83
2023/02/24 09:02:26;;;;;;;5.15;3.17;;;5.10;1.00;;;;;;5022419;28;20199;-83
2023/02/24 09:04:54;;;;;;;12.45;3.30;;;5.00;67.30;;;;;;5033793;28;20206;-83
2023/02/24 09:07:25;;;;;;;6.93;3.10;;;5.00;21.60;;;;;;5038683;28;20252;-83
2023/02/24 09:09:55;;;;;;;4.03;2.95;;;5.00;77.70;;;;;;5032741;28;20232;-82
2023/02/24 09:12:23;;;;;;;6.28;3.00;;;5.10;98.60;;;;;;5027148;28;20296;-83
2023/02/24 09:14:54;;;;;;;6.35;2.88;;;5.10;83.10;;;;;;5030711;28;20208;-83
2023/02/24 09:17:38;;;;;;;8.95;2.70;;;5.30;99.90;;;;;;5034571;28;20299;-83
2023/02/24 09:23:02;;;;;;;6.55;2.80;;;5.30;54.40;;;;;;5025290;28;20184;-84
2023/02/24 09:25:40;;;;;;;8.48;3.20;;;5.40;1.00;;;;;;5025531;28;20193;-83
2023/02/24 09:28:09;;;;;;;7.03;2.97;;;5.30;1.00;;;;;;5023584;28;20272;-83
2023/02/24 09:30:49;;;;;;;5.45;3.30;;;4.90;99.90;;;;;;5023974;28;20209;-83
2023/02/24 09:33:19;;;;;;;4.50;3.05;;;5.10;1.00;;;;;;5024513;28;20251;-82
2023/02/24 09:36:01;;;;;;;6.57;3.28;;;5.10;1.00;;;;;;5027341;28;20202;-83
2023/02/24 09:41:52;;;;;;;6.20;3.00;;;5.20;1.00;;;;;;5024379;28;20241;-82
2023/02/24 09:44:25;;;;;;;3.85;3.00;;;5.20;1.00;;;;;;5025973;28;20205;-83
2023/02/24 09:46:55;;;;;;;8.40;3.20;;;4.70;99.90;;;;;;5033773;28;20241;-83
2023/02/24 09:49:27;;;;;;;6.70;2.90;;;5.10;1.00;;;;;;5031081;28;20204;-82
2023/02/24 09:51:59;;;;;;;8.05;3.08;;;5.20;15.50;;;;;;5031316;28;20209;-82
2023/02/24 09:54:31;;;;;;;2.65;2.33;;;5.30;1.00;;;;;;5027697;28;20209;-82
2023/02/24 09:57:08;;;;;;;5.93;2.90;;;5.20;99.90;;;;;;5024882;28;20196;-82
2023/02/24 09:59:49;;;;;;;10.10;2.63;;;5.20;1.00;;;;;;5036198;28;20196;-82
2023/02/24 10:02:38;;;;;;;4.75;2.55;;;5.20;1.00;;;;;;5027797;28;20189;-83
2023/02/24 10:05:13;;;;;;;5.55;2.45;;;5.30;1.00;;;;;;5032513;28;20236;-83
2023/02/24 10:07:42;;;;;;;3.15;2.03;;;5.40;70.00;;;;;;5028094;28;20239;-83
2023/02/24 10:10:26;;;;;;;6.38;2.75;;;5.20;1.00;;;;;;5024135;28;20206;-83
2023/02/24 10:13:01;;;;;;;6.40;2.08;;;5.40;1.00;;;;;;5024643;28;20190;-82
2023/02/24 10:15:49;;;;;;;11.75;2.47;;;5.40;1.00;;;;;;5024145;28;20193;-83
2023/02/24 10:18:28;;;;;;;4.32;2.65;;;5.40;1.00;;;;;;5038168;28;20226;-83
2023/02/24 10:21:02;;;;;;;6.75;1.92;;;5.40;1.00;;;;;;5035845;28;20190;-82
2023/02/24 10:23:43;;;;;;;11.18;2.25;;;5.40;1.00;;;;;;5035184;28;20253;-83
2023/02/24 10:26:30;;;;;;;5.88;2.15;;;5.50;1.00;;;;;;5025562;28;20189;-83
2023/02/24 10:29:07;;;;;;;3.58;1.90;;;5.50;1.00;;;;;;5023137;28;20590;-83
2023/02/24 10:31:41;;;;;;;8.15;2.30;;;5.50;1.00;;;;;;5023620;28;20200;-83
2023/02/24 10:34:11;;;;;;;5.18;2.20;;;5.50;1.00;;;;;;5026409;28;20219;-82
2023/02/24 10:36:39;;;;;;;5.30;2.00;;;5.60;1.00;;;;;;5028349;28;20206;-82
2023/02/24 10:39:15;;;;;;;9.07;2.70;;;5.70;1.00;;;;;;5023242;28;20234;-83
2023/02/24 10:41:46;;;;;;;6.55;2.60;;;5.80;1.00;;;;;;5027162;28;20190;-82
2023/02/24 10:44:22;;;;;;;7.95;2.50;;;5.80;1.00;;;;;;5033399;28;20258;-82
2023/02/24 10:47:10;;;;;;;8.05;2.40;;;5.50;1.00;;;;;;5032971;28;20193;-82
2023/02/24 10:49:41;;;;;;;3.28;2.55;;;5.80;1.00;;;;;;5024256;28;20186;-83
2023/02/24 10:52:28;;;;;;;11.25;2.65;;;5.70;1.00;;;;;;5023208;28;20225;-83
2023/02/24 10:55:04;;;;;;;3.80;2.05;;;5.70;1.00;;;;;;5023469;28;20188;-82
2023/02/24 10:57:36;;;;;;;10.77;3.80;;;5.70;99.90;;;;;;5027250;28;20221;-82
2023/02/24 11:00:31;;;;;;;3.20;2.90;;;5.70;1.00;;;;;;5031041;28;20216;-82
2023/02/24 11:03:09;;;;;;;5.88;2.70;;;5.70;1.00;;;;;;5030890;28;20248;-83
2023/02/24 11:05:43;;;;;;;8.57;5.07;;;5.60;1.00;;;;;;5038928;28;20198;-83
2023/02/24 11:08:38;;;;;;;3.75;2.65;;;5.40;40.10;;;;;;5034401;28;20259;-82
2023/02/24 11:11:18;;;;;;;6.05;2.50;;;5.40;75.90;;;;;;5022784;28;20205;-82
2023/02/24 11:19:33;;;;;;;6.82;3.38;;;4.90;99.90;;;;;;5023533;28;20615;-82
2023/02/24 11:22:01;;;;;;;3.70;3.35;;;4.70;1.00;;;;;;5022999;28;20209;-82
2023/02/24 11:24:29;;;;;;;3.70;2.30;;;4.40;99.90;;;;;;5021803;28;20244;-83
2023/02/24 11:26:57;;;;;;;8.88;3.83;;;4.10;1.00;;;;;;5022801;28;20333;-83
2023/02/24 11:29:39;;;;;;;6.60;4.50;;;4.20;1.00;;;;;;5022272;28;20213;-83
2023/02/24 11:32:28;;;;;;;5.20;2.60;;;4.00;1.00;;;;;;5021696;28;20194;-83
2023/02/24 11:35:03;;;;;;;8.45;2.90;;;3.90;98.30;;;;;;5021523;28;20189;-83
2023/02/24 11:37:37;;;;;;;3.67;2.53;;;3.80;99.90;;;;;;5021803;28;20220;-83
2023/02/24 11:40:11;;;;;;;3.60;2.35;;;3.80;99.90;;;;;;5023414;28;20198;-83
2023/02/24 11:42:44;;;;;;;10.10;4.28;;;3.70;99.90;;;;;;5023380;28;20279;-82
2023/02/24 11:45:25;;;;;;;8.10;3.08;;;3.50;1.00;;;;;;5022611;28;20195;-82
2023/02/24 11:47:55;;;;;;;5.85;3.15;;;3.50;29.30;;;;;;5023164;28;20668;-83
2023/02/24 11:50:32;;;;;;;7.40;3.78;;;3.50;80.40;;;;;;5022164;28;20217;-82
2023/02/24 11:53:05;;;;;;;8.50;3.40;;;3.60;99.90;;;;;;5022667;28;20640;-82
2023/02/24 11:55:37;;;;;;;6.00;3.33;;;3.70;99.90;;;;;;5022510;28;20225;-82
2023/02/24 11:58:12;;;;;;;3.45;2.80;;;3.60;27.20;;;;;;5034118;28;20228;-82
2023/02/24 12:00:44;;;;;;;6.90;3.83;;;3.30;99.90;;;;;;5036051;28;20173;-82
2023/02/24 12:03:17;;;;;;;4.55;3.33;;;5.00;99.90;;;;;;5037898;28;20173;-81
2023/02/24 12:05:49;;;;;;;9.07;3.47;;;3.50;99.90;;;;;;5034836;28;20185;-82
2023/02/24 12:08:24;;;;;;;15.95;3.45;;;3.60;99.90;;;;;;5030332;28;20259;-83
2023/02/24 12:10:58;;;;;;;3.65;3.20;;;3.70;99.90;;;;;;5033129;28;20229;-83
2023/02/24 12:13:36;;;;;;;6.55;3.17;;;3.70;99.90;;;;;;5035049;28;20247;-82
2023/02/24 12:16:10;;;;;;;9.10;5.97;;;3.60;99.90;;;;;;5028311;28;20235;-82
2023/02/24 12:18:40;;;;;;;4.38;2.92;;;3.70;99.90;;;;;;5026721;28;20224;-82
2023/02/24 12:21:12;;;;;;;5.15;2.70;;;3.70;99.90;;;;;;5027379;28;20253;-82
2023/02/24 12:23:42;;;;;;;4.78;3.20;;;3.80;99.90;;;;;;5025335;28;20200;-82
2023/02/24 12:26:18;;;;;;;3.15;2.20;;;3.50;99.90;;;;;;5025434;28;20189;-82
2023/02/24 12:29:04;;;;;;;5.95;3.05;;;3.50;99.90;;;;;;5025124;28;20228;-83
2023/02/24 12:31:40;;;;;;;3.55;2.80;;;3.40;99.90;;;;;;5025106;28;20193;-82
2023/02/24 12:34:14;;;;;;;4.40;2.38;;;3.50;99.90;;;;;;5025269;28;20193;-82
2023/02/24 12:36:57;;;;;;;6.95;3.17;;;3.50;99.90;;;;;;5029522;28;20200;-83
2023/02/24 12:39:30;;;;;;;5.90;3.47;;;3.50;99.90;;;;;;5029622;28;20659;-82
2023/02/24 12:42:12;;;;;;;3.33;1.90;;;3.40;99.90;;;;;;5028772;28;20228;-82
2023/02/24 12:44:48;;;;;;;5.85;3.00;;;3.70;99.90;;;;;;5026368;28;20199;-82
2023/02/24 12:47:25;;;;;;;3.92;2.30;;;3.40;99.90;;;;;;5031112;28;20221;-81
2023/02/24 12:50:07;;;;;;;3.63;2.22;;;3.60;99.90;;;;;;5035096;28;20213;-82
2023/02/24 12:52:44;;;;;;;2.65;2.13;;;3.20;99.90;;;;;;5033363;28;20233;-82
2023/02/24 12:55:20;;;;;;;6.05;2.50;;;3.30;99.90;;;;;;5028498;28;20273;-82
2023/02/24 12:57:55;;;;;;;12.38;3.28;;;3.30;99.90;;;;;;5031568;28;20244;-82
2023/02/24 13:00:29;;;;;;;3.90;2.90;;;3.30;99.90;;;;;;5034128;28;20196;-83
2023/02/24 13:03:06;;;;;;;4.50;3.00;;;3.40;99.90;;;;;;5034227;28;20189;-82
2023/02/24 13:05:37;;;;;;;6.97;2.80;;;3.40;99.90;;;;;;5034385;28;20200;-82
2023/02/24 13:08:18;;;;;;;5.47;3.20;;;3.60;99.90;;;;;;5032811;28;20232;-83
2023/02/24 13:10:50;;;;;;;4.00;3.40;;;3.40;1.00;;;;;;5037538;28;20217;-83
2023/02/24 13:13:27;;;;;;;7.55;3.60;;;3.30;99.90;;;;;;5039703;28;20204;-82
2023/02/24 13:15:56;;;;;;;4.80;3.63;;;3.30;99.90;;;;;;5038888;28;20170;-82
2023/02/24 13:18:30;;;;;;;12.77;4.50;;;3.40;99.90;;;;;;5037213;28;20201;-82
2023/02/24 13:21:06;;;;;;;6.70;3.65;;;3.50;99.90;;;;;;5039945;28;20244;-82
2023/02/24 13:23:33;;;;;;;6.60;3.80;;;3.50;99.90;;;;;;5031423;28;20197;-82
2023/02/24 13:26:01;;;;;;;7.18;4.00;;;3.40;1.00;;;;;;5030605;28;20264;-82
2023/02/24 13:28:32;;;;;;;4.40;3.63;;;3.40;99.90;;;;;;5031579;28;20224;-82
2023/02/24 13:31:01;;;;;;;10.98;3.25;;;3.10;99.90;;;;;;5031650;28;20200;-82
2023/02/24 13:33:33;;;;;;;5.75;3.08;;;3.20;99.90;;;;;;5027428;28;20241;-82
2023/02/24 13:36:13;;;;;;;3.08;2.80;;;3.20;99.90;;;;;;5025010;28;20275;-83
2023/02/24 13:38:42;;;;;;;3.03;2.72;;;3.50;1.00;;;;;;5023759;28;20221;-82
2023/02/24 13:41:22;;;;;;;3.70;2.92;;;3.20;99.90;;;;;;5024294;28;20206;-82